sensor_id;sensor_type;location;lat;lon;timestamp;pressure;altitude;pressure_sealevel;temperature;humidity
68137;BME280;54939;50.826;9.030;2024-01-30T00:00:13;100023.69;;;4.99;69.75
68137;BME280;54939;50.826;9.030;2024-01-30T00:00:44;100023.69;;;4.99;69.29
68137;BME280;54939;50.826;9.030;2024-01-30T00:01:14;100026.44;;;4.98;69.53
68137;BME280;54939;50.826;9.030;2024-01-30T00:01:44;100014.91;;;4.99;69.82
68137;BME280;54939;50.826;9.030;2024-01-30T00:02:14;100018.59;;;4.96;69.71
68137;BME280;54939;50.826;9.030;2024-01-30T00:02:45;100015.00;;;4.97;69.87
68137;BME280;54939;50.826;9.030;2024-01-30T00:03:15;100018.50;;;4.98;69.65
68137;BME280;54939;50.826;9.030;2024-01-30T00:03:46;100016.69;;;4.98;69.49
68137;BME280;54939;50.826;9.030;2024-01-30T00:04:16;100017.66;;;4.97;69.42
68137;BME280;54939;50.826;9.030;2024-01-30T00:04:47;100008.00;;;4.96;69.52
68137;BME280;54939;50.826;9.030;2024-01-30T00:05:17;100006.22;;;4.97;69.82
68137;BME280;54939;50.826;9.030;2024-01-30T00:05:47;100017.66;;;4.97;69.85
68137;BME280;54939;50.826;9.030;2024-01-30T00:06:20;100015.00;;;4.97;69.71
68137;BME280;54939;50.826;9.030;2024-01-30T00:06:51;100012.34;;;4.97;69.75
68137;BME280;54939;50.826;9.030;2024-01-30T00:07:22;100015.88;;;4.98;69.55
68137;BME280;54939;50.826;9.030;2024-01-30T00:07:53;100011.50;;;4.97;69.79
68137;BME280;54939;50.826;9.030;2024-01-30T00:08:23;100020.31;;;4.97;69.71
68137;BME280;54939;50.826;9.030;2024-01-30T00:08:53;100016.69;;;4.98;69.70
68137;BME280;54939;50.826;9.030;2024-01-30T00:09:23;100014.03;;;4.98;69.37
68137;BME280;54939;50.826;9.030;2024-01-30T00:09:53;100016.69;;;4.98;69.72
68137;BME280;54939;50.826;9.030;2024-01-30T00:10:23;100015.88;;;4.98;69.73
68137;BME280;54939;50.826;9.030;2024-01-30T00:10:54;100012.34;;;4.97;69.69
68137;BME280;54939;50.826;9.030;2024-01-30T00:11:24;100015.94;;;4.96;69.69
68137;BME280;54939;50.826;9.030;2024-01-30T00:11:55;100010.66;;;4.96;69.65
68137;BME280;54939;50.826;9.030;2024-01-30T00:12:26;100014.16;;;4.97;69.83
68137;BME280;54939;50.826;9.030;2024-01-30T00:12:56;100014.16;;;4.97;69.54
68137;BME280;54939;50.826;9.030;2024-01-30T00:13:26;100011.50;;;4.97;69.50
68137;BME280;54939;50.826;9.030;2024-01-30T00:13:57;100009.72;;;4.97;69.50
68137;BME280;54939;50.826;9.030;2024-01-30T00:14:27;100014.22;;;4.95;69.70
68137;BME280;54939;50.826;9.030;2024-01-30T00:14:57;100012.44;;;4.96;69.98
68137;BME280;54939;50.826;9.030;2024-01-30T00:15:28;100014.22;;;4.95;69.52
68137;BME280;54939;50.826;9.030;2024-01-30T00:15:58;100014.22;;;4.95;69.53
68137;BME280;54939;50.826;9.030;2024-01-30T00:16:28;100013.38;;;4.95;69.83
68137;BME280;54939;50.826;9.030;2024-01-30T00:16:58;100006.28;;;4.95;69.83
68137;BME280;54939;50.826;9.030;2024-01-30T00:17:28;100007.22;;;4.94;69.75
68137;BME280;54939;50.826;9.030;2024-01-30T00:17:58;100006.28;;;4.95;69.80
68137;BME280;54939;50.826;9.030;2024-01-30T00:18:29;100010.72;;;4.95;69.76
68137;BME280;54939;50.826;9.030;2024-01-30T00:18:59;100008.94;;;4.95;69.83
68137;BME280;54939;50.826;9.030;2024-01-30T00:19:29;100008.84;;;4.97;69.99
68137;BME280;54939;50.826;9.030;2024-01-30T00:19:59;100012.44;;;4.96;69.71
68137;BME280;54939;50.826;9.030;2024-01-30T00:20:29;100015.00;;;4.97;69.34
68137;BME280;54939;50.826;9.030;2024-01-30T00:21:00;100010.66;;;4.96;69.57
68137;BME280;54939;50.826;9.030;2024-01-30T00:21:30;100005.34;;;4.96;69.61
68137;BME280;54939;50.826;9.030;2024-01-30T00:22:00;100010.66;;;4.96;69.61
68137;BME280;54939;50.826;9.030;2024-01-30T00:22:31;100010.66;;;4.96;69.81
68137;BME280;54939;50.826;9.030;2024-01-30T00:23:01;100007.06;;;4.97;69.51
68137;BME280;54939;50.826;9.030;2024-01-30T00:23:31;100007.06;;;4.97;69.81
68137;BME280;54939;50.826;9.030;2024-01-30T00:24:01;100000.06;;;4.96;69.68
68137;BME280;54939;50.826;9.030;2024-01-30T00:24:32;100004.41;;;4.97;69.28
68137;BME280;54939;50.826;9.030;2024-01-30T00:25:02;100006.22;;;4.97;69.95
68137;BME280;54939;50.826;9.030;2024-01-30T00:25:32;100003.56;;;4.97;69.27
68137;BME280;54939;50.826;9.030;2024-01-30T00:26:03;100002.72;;;4.96;69.68
68137;BME280;54939;50.826;9.030;2024-01-30T00:26:35;100010.66;;;4.96;69.23
68137;BME280;54939;50.826;9.030;2024-01-30T00:27:05;100006.28;;;4.95;69.67
68137;BME280;54939;50.826;9.030;2024-01-30T00:27:36;100009.78;;;4.96;69.30
68137;BME280;54939;50.826;9.030;2024-01-30T00:28:06;100003.66;;;4.95;69.69
68137;BME280;54939;50.826;9.030;2024-01-30T00:28:37;100007.06;;;4.97;69.28
68137;BME280;54939;50.826;9.030;2024-01-30T00:29:07;100007.91;;;4.98;69.78
68137;BME280;54939;50.826;9.030;2024-01-30T00:29:40;100014.22;;;4.95;69.81
68137;BME280;54939;50.826;9.030;2024-01-30T00:30:10;100006.22;;;4.97;69.38
68137;BME280;54939;50.826;9.030;2024-01-30T00:30:41;100005.34;;;4.96;69.75
68137;BME280;54939;50.826;9.030;2024-01-30T00:31:11;100006.22;;;4.97;69.55
68137;BME280;54939;50.826;9.030;2024-01-30T00:31:44;100002.72;;;4.96;69.70
68137;BME280;54939;50.826;9.030;2024-01-30T00:32:15;100007.06;;;4.97;69.45
68137;BME280;54939;50.826;9.030;2024-01-30T00:32:45;100004.41;;;4.97;69.89
68137;BME280;54939;50.826;9.030;2024-01-30T00:33:15;100002.72;;;4.96;69.76
68137;BME280;54939;50.826;9.030;2024-01-30T00:33:46;100009.72;;;4.97;69.76
68137;BME280;54939;50.826;9.030;2024-01-30T00:34:16;100010.66;;;4.96;69.75
68137;BME280;54939;50.826;9.030;2024-01-30T00:34:46;100008.00;;;4.96;69.54
68137;BME280;54939;50.826;9.030;2024-01-30T00:35:16;100006.22;;;4.97;69.81
68137;BME280;54939;50.826;9.030;2024-01-30T00:35:46;100006.09;;;4.98;69.63
68137;BME280;54939;50.826;9.030;2024-01-30T00:36:17;100013.22;;;4.98;69.48
68137;BME280;54939;50.826;9.030;2024-01-30T00:36:47;100003.44;;;4.98;69.41
68137;BME280;54939;50.826;9.030;2024-01-30T00:37:17;100006.09;;;4.98;69.65
68137;BME280;54939;50.826;9.030;2024-01-30T00:37:47;100012.34;;;4.97;69.12
68137;BME280;54939;50.826;9.030;2024-01-30T00:38:18;100008.84;;;4.97;69.77
68137;BME280;54939;50.826;9.030;2024-01-30T00:38:48;100010.66;;;4.96;69.53
68137;BME280;54939;50.826;9.030;2024-01-30T00:39:18;100003.66;;;4.95;69.47
68137;BME280;54939;50.826;9.030;2024-01-30T00:39:49;100001.78;;;4.97;69.58
68137;BME280;54939;50.826;9.030;2024-01-30T00:40:19;100013.28;;;4.96;69.67
68137;BME280;54939;50.826;9.030;2024-01-30T00:40:50;100009.78;;;4.96;69.67
68137;BME280;54939;50.826;9.030;2024-01-30T00:41:20;100014.22;;;4.95;69.81
68137;BME280;54939;50.826;9.030;2024-01-30T00:41:50;100008.94;;;4.95;69.34
68137;BME280;54939;50.826;9.030;2024-01-30T00:42:21;100002.72;;;4.96;69.23
68137;BME280;54939;50.826;9.030;2024-01-30T00:42:53;100013.28;;;4.96;69.96
68137;BME280;54939;50.826;9.030;2024-01-30T00:43:23;100011.50;;;4.97;69.57
68137;BME280;54939;50.826;9.030;2024-01-30T00:43:55;100008.94;;;4.95;69.72
68137;BME280;54939;50.826;9.030;2024-01-30T00:44:25;100015.09;;;4.96;69.35
68137;BME280;54939;50.826;9.030;2024-01-30T00:44:55;100006.28;;;4.95;69.86
68137;BME280;54939;50.826;9.030;2024-01-30T00:45:25;100013.28;;;4.96;69.69
68137;BME280;54939;50.826;9.030;2024-01-30T00:45:56;100008.84;;;4.97;69.60
68137;BME280;54939;50.826;9.030;2024-01-30T00:46:26;100007.16;;;4.96;69.31
68137;BME280;54939;50.826;9.030;2024-01-30T00:46:56;99997.50;;;4.95;69.42
68137;BME280;54939;50.826;9.030;2024-01-30T00:47:26;100008.09;;;4.95;69.17
68137;BME280;54939;50.826;9.030;2024-01-30T00:47:56;100006.28;;;4.95;69.58
68137;BME280;54939;50.826;9.030;2024-01-30T00:48:26;100005.34;;;4.96;69.75
68137;BME280;54939;50.826;9.030;2024-01-30T00:48:57;100001.84;;;4.96;69.62
68137;BME280;54939;50.826;9.030;2024-01-30T00:49:27;99998.34;;;4.95;69.41
68137;BME280;54939;50.826;9.030;2024-01-30T00:49:57;100001.94;;;4.94;69.33
68137;BME280;54939;50.826;9.030;2024-01-30T00:50:27;100003.66;;;4.95;69.67
68137;BME280;54939;50.826;9.030;2024-01-30T00:50:57;100002.88;;;4.93;69.34
68137;BME280;54939;50.826;9.030;2024-01-30T00:51:27;99999.38;;;4.93;69.79
68137;BME280;54939;50.826;9.030;2024-01-30T00:51:59;100005.50;;;4.93;69.84
68137;BME280;54939;50.826;9.030;2024-01-30T00:52:29;100003.72;;;4.94;69.88
68137;BME280;54939;50.826;9.030;2024-01-30T00:53:00;99996.63;;;4.94;69.94
68137;BME280;54939;50.826;9.030;2024-01-30T00:53:30;99997.50;;;4.95;69.84
68137;BME280;54939;50.826;9.030;2024-01-30T00:54:00;99994.84;;;4.95;69.67
68137;BME280;54939;50.826;9.030;2024-01-30T00:54:30;99999.28;;;4.94;69.80
68137;BME280;54939;50.826;9.030;2024-01-30T00:55:01;100001.00;;;4.95;69.72
68137;BME280;54939;50.826;9.030;2024-01-30T00:55:31;100004.50;;;4.96;69.71
68137;BME280;54939;50.826;9.030;2024-01-30T00:56:01;99999.22;;;4.96;69.48
68137;BME280;54939;50.826;9.030;2024-01-30T00:56:31;100003.66;;;4.95;69.42
68137;BME280;54939;50.826;9.030;2024-01-30T00:57:02;100002.78;;;4.95;69.29
68137;BME280;54939;50.826;9.030;2024-01-30T00:57:32;100006.28;;;4.95;69.67
68137;BME280;54939;50.826;9.030;2024-01-30T00:58:02;100007.22;;;4.94;69.34
68137;BME280;54939;50.826;9.030;2024-01-30T00:58:33;100001.00;;;4.95;69.76
68137;BME280;54939;50.826;9.030;2024-01-30T00:59:03;99999.28;;;4.94;69.61
68137;BME280;54939;50.826;9.030;2024-01-30T00:59:33;100002.78;;;4.95;69.56
68137;BME280;54939;50.826;9.030;2024-01-30T01:00:03;99999.28;;;4.94;69.78
68137;BME280;54939;50.826;9.030;2024-01-30T01:00:36;99997.50;;;4.95;69.62
68137;BME280;54939;50.826;9.030;2024-01-30T01:01:07;100001.06;;;4.94;69.47
68137;BME280;54939;50.826;9.030;2024-01-30T01:01:37;100002.78;;;4.95;69.71
68137;BME280;54939;50.826;9.030;2024-01-30T01:02:07;100007.22;;;4.94;69.64
68137;BME280;54939;50.826;9.030;2024-01-30T01:02:37;100010.72;;;4.95;69.54
68137;BME280;54939;50.826;9.030;2024-01-30T01:03:09;100005.50;;;4.93;69.77
68137;BME280;54939;50.826;9.030;2024-01-30T01:03:39;100001.94;;;4.94;69.25
68137;BME280;54939;50.826;9.030;2024-01-30T01:04:11;100013.38;;;4.95;69.78
68137;BME280;54939;50.826;9.030;2024-01-30T01:04:41;100011.59;;;4.95;69.59
68137;BME280;54939;50.826;9.030;2024-01-30T01:05:11;100012.59;;;4.93;69.28
68137;BME280;54939;50.826;9.030;2024-01-30T01:05:41;100009.09;;;4.92;69.47
68137;BME280;54939;50.826;9.030;2024-01-30T01:06:11;100008.16;;;4.93;69.95
68137;BME280;54939;50.826;9.030;2024-01-30T01:06:42;100015.16;;;4.94;69.19
68137;BME280;54939;50.826;9.030;2024-01-30T01:07:14;100010.81;;;4.93;69.66
68137;BME280;54939;50.826;9.030;2024-01-30T01:07:44;100008.09;;;4.95;69.30
68137;BME280;54939;50.826;9.030;2024-01-30T01:08:15;100014.22;;;4.95;69.72
68137;BME280;54939;50.826;9.030;2024-01-30T01:08:45;100012.53;;;4.94;69.64
68137;BME280;54939;50.826;9.030;2024-01-30T01:09:15;100011.59;;;4.95;69.38
68137;BME280;54939;50.826;9.030;2024-01-30T01:09:45;100015.94;;;4.96;69.64
68137;BME280;54939;50.826;9.030;2024-01-30T01:10:16;100014.22;;;4.95;69.59
68137;BME280;54939;50.826;9.030;2024-01-30T01:10:47;100010.66;;;4.96;69.21
68137;BME280;54939;50.826;9.030;2024-01-30T01:11:17;100012.53;;;4.94;69.34
68137;BME280;54939;50.826;9.030;2024-01-30T01:11:47;100008.09;;;4.95;69.81
68137;BME280;54939;50.826;9.030;2024-01-30T01:12:17;100009.88;;;4.94;69.61
68137;BME280;54939;50.826;9.030;2024-01-30T01:12:48;100002.88;;;4.93;69.52
68137;BME280;54939;50.826;9.030;2024-01-30T01:13:18;100007.22;;;4.94;69.60
68137;BME280;54939;50.826;9.030;2024-01-30T01:13:48;100003.72;;;4.94;69.61
68137;BME280;54939;50.826;9.030;2024-01-30T01:14:18;100010.81;;;4.93;69.55
68137;BME280;54939;50.826;9.030;2024-01-30T01:14:48;100009.88;;;4.94;69.52
68137;BME280;54939;50.826;9.030;2024-01-30T01:15:19;100005.50;;;4.93;69.48
68137;BME280;54939;50.826;9.030;2024-01-30T01:15:49;100007.22;;;4.94;69.82
68137;BME280;54939;50.826;9.030;2024-01-30T01:16:19;100005.44;;;4.95;69.44
68137;BME280;54939;50.826;9.030;2024-01-30T01:16:49;100009.00;;;4.94;69.31
68137;BME280;54939;50.826;9.030;2024-01-30T01:17:19;100007.22;;;4.94;69.46
68137;BME280;54939;50.826;9.030;2024-01-30T01:17:52;100010.72;;;4.95;69.58
68137;BME280;54939;50.826;9.030;2024-01-30T01:18:22;100009.00;;;4.94;69.72
68137;BME280;54939;50.826;9.030;2024-01-30T01:18:52;100006.38;;;4.94;69.67
68137;BME280;54939;50.826;9.030;2024-01-30T01:19:22;100012.53;;;4.94;69.70
68137;BME280;54939;50.826;9.030;2024-01-30T01:19:53;100007.22;;;4.94;69.57
68137;BME280;54939;50.826;9.030;2024-01-30T01:20:23;100010.81;;;4.93;69.63
68137;BME280;54939;50.826;9.030;2024-01-30T01:20:53;100008.16;;;4.93;69.46
68137;BME280;54939;50.826;9.030;2024-01-30T01:21:23;100018.66;;;4.95;69.59
68137;BME280;54939;50.826;9.030;2024-01-30T01:21:56;100007.22;;;4.94;69.27
68137;BME280;54939;50.826;9.030;2024-01-30T01:22:26;100008.09;;;4.95;69.43
68137;BME280;54939;50.826;9.030;2024-01-30T01:22:56;100009.00;;;4.94;69.18
68137;BME280;54939;50.826;9.030;2024-01-30T01:23:26;100012.53;;;4.94;69.68
68137;BME280;54939;50.826;9.030;2024-01-30T01:23:57;100008.09;;;4.95;69.91
68137;BME280;54939;50.826;9.030;2024-01-30T01:24:27;100008.16;;;4.93;69.23
68137;BME280;54939;50.826;9.030;2024-01-30T01:24:57;100007.22;;;4.94;69.36
68137;BME280;54939;50.826;9.030;2024-01-30T01:25:27;100008.16;;;4.93;69.59
68137;BME280;54939;50.826;9.030;2024-01-30T01:25:57;100009.09;;;4.92;69.18
68137;BME280;54939;50.826;9.030;2024-01-30T01:26:29;100007.31;;;4.93;69.46
68137;BME280;54939;50.826;9.030;2024-01-30T01:26:59;100008.16;;;4.93;69.42
68137;BME280;54939;50.826;9.030;2024-01-30T01:27:30;100009.88;;;4.94;69.20
68137;BME280;54939;50.826;9.030;2024-01-30T01:28:02;100009.09;;;4.92;69.36
68137;BME280;54939;50.826;9.030;2024-01-30T01:28:32;100009.09;;;4.92;69.45
68137;BME280;54939;50.826;9.030;2024-01-30T01:29:02;100009.09;;;4.92;69.43
68137;BME280;54939;50.826;9.030;2024-01-30T01:29:39;100009.09;;;4.92;69.88
68137;BME280;54939;50.826;9.030;2024-01-30T01:30:10;100009.94;;;4.93;69.76
68137;BME280;54939;50.826;9.030;2024-01-30T01:30:40;100003.81;;;4.92;69.62
68137;BME280;54939;50.826;9.030;2024-01-30T01:31:13;100005.50;;;4.93;69.22
68137;BME280;54939;50.826;9.030;2024-01-30T01:31:43;100007.38;;;4.91;69.14
68137;BME280;54939;50.826;9.030;2024-01-30T01:32:14;100004.66;;;4.93;69.60
68137;BME280;54939;50.826;9.030;2024-01-30T01:32:44;100000.22;;;4.93;69.74
68137;BME280;54939;50.826;9.030;2024-01-30T01:33:20;100004.59;;;4.94;69.12
68137;BME280;54939;50.826;9.030;2024-01-30T01:33:50;100009.88;;;4.94;69.24
68137;BME280;54939;50.826;9.030;2024-01-30T01:34:20;100000.22;;;4.93;69.88
68137;BME280;54939;50.826;9.030;2024-01-30T01:34:50;99997.56;;;4.93;69.17
68137;BME280;54939;50.826;9.030;2024-01-30T01:35:21;100001.06;;;4.94;69.00
68137;BME280;54939;50.826;9.030;2024-01-30T01:35:52;100002.00;;;4.93;69.36
68137;BME280;54939;50.826;9.030;2024-01-30T01:36:23;100005.50;;;4.93;69.34
68137;BME280;54939;50.826;9.030;2024-01-30T01:36:53;99996.72;;;4.93;69.60
68137;BME280;54939;50.826;9.030;2024-01-30T01:37:25;99997.56;;;4.93;69.69
68137;BME280;54939;50.826;9.030;2024-01-30T01:37:56;100000.22;;;4.93;69.60
68137;BME280;54939;50.826;9.030;2024-01-30T01:38:28;99989.63;;;4.93;69.56
68137;BME280;54939;50.826;9.030;2024-01-30T01:38:58;100004.59;;;4.94;69.70
68137;BME280;54939;50.826;9.030;2024-01-30T01:39:28;100002.88;;;4.93;69.24
68137;BME280;54939;50.826;9.030;2024-01-30T01:39:59;100002.00;;;4.93;69.59
68137;BME280;54939;50.826;9.030;2024-01-30T01:40:30;100000.22;;;4.93;69.67
68137;BME280;54939;50.826;9.030;2024-01-30T01:41:00;99998.44;;;4.94;69.52
68137;BME280;54939;50.826;9.030;2024-01-30T01:41:30;100008.16;;;4.93;69.46
68137;BME280;54939;50.826;9.030;2024-01-30T01:42:01;100001.06;;;4.94;69.70
68137;BME280;54939;50.826;9.030;2024-01-30T01:42:32;99994.94;;;4.93;69.50
68137;BME280;54939;50.826;9.030;2024-01-30T01:43:03;99999.38;;;4.93;69.73
68137;BME280;54939;50.826;9.030;2024-01-30T01:43:33;100002.09;;;4.91;69.54
68137;BME280;54939;50.826;9.030;2024-01-30T01:44:03;100002.94;;;4.92;69.71
68137;BME280;54939;50.826;9.030;2024-01-30T01:44:33;100000.41;;;4.90;69.39
68137;BME280;54939;50.826;9.030;2024-01-30T01:45:04;100003.72;;;4.94;69.56
68137;BME280;54939;50.826;9.030;2024-01-30T01:45:34;100002.00;;;4.93;69.55
68137;BME280;54939;50.826;9.030;2024-01-30T01:46:05;100003.81;;;4.92;69.60
68137;BME280;54939;50.826;9.030;2024-01-30T01:46:35;100004.75;;;4.91;69.74
68137;BME280;54939;50.826;9.030;2024-01-30T01:47:06;99999.38;;;4.93;69.53
68137;BME280;54939;50.826;9.030;2024-01-30T01:47:37;100002.00;;;4.93;69.17
68137;BME280;54939;50.826;9.030;2024-01-30T01:48:07;99995.00;;;4.92;69.29
68137;BME280;54939;50.826;9.030;2024-01-30T01:48:38;100000.31;;;4.92;69.72
68137;BME280;54939;50.826;9.030;2024-01-30T01:49:09;100003.81;;;4.92;69.04
68137;BME280;54939;50.826;9.030;2024-01-30T01:49:40;99992.38;;;4.92;69.56
68137;BME280;54939;50.826;9.030;2024-01-30T01:50:10;100002.88;;;4.93;69.77
68137;BME280;54939;50.826;9.030;2024-01-30T01:50:40;99996.81;;;4.91;69.46
68137;BME280;54939;50.826;9.030;2024-01-30T01:51:11;99998.50;;;4.92;69.24
68137;BME280;54939;50.826;9.030;2024-01-30T01:51:41;99998.50;;;4.92;69.84
68137;BME280;54939;50.826;9.030;2024-01-30T01:52:14;99995.88;;;4.92;69.08
68137;BME280;54939;50.826;9.030;2024-01-30T01:52:46;99995.88;;;4.92;69.64
68137;BME280;54939;50.826;9.030;2024-01-30T01:53:17;99998.63;;;4.91;69.87
68137;BME280;54939;50.826;9.030;2024-01-30T01:53:47;100000.31;;;4.92;69.21
68137;BME280;54939;50.826;9.030;2024-01-30T01:54:17;100000.31;;;4.92;69.19
68137;BME280;54939;50.826;9.030;2024-01-30T01:54:48;99995.88;;;4.92;69.66
68137;BME280;54939;50.826;9.030;2024-01-30T01:55:19;100001.06;;;4.94;69.53
68137;BME280;54939;50.826;9.030;2024-01-30T01:55:51;99999.38;;;4.93;69.37
68137;BME280;54939;50.826;9.030;2024-01-30T01:56:23;100003.81;;;4.92;69.36
68137;BME280;54939;50.826;9.030;2024-01-30T01:56:53;100004.75;;;4.91;69.35
68137;BME280;54939;50.826;9.030;2024-01-30T01:57:24;100002.09;;;4.91;69.60
68137;BME280;54939;50.826;9.030;2024-01-30T01:57:54;99997.66;;;4.92;69.14
68137;BME280;54939;50.826;9.030;2024-01-30T01:58:25;100001.28;;;4.91;69.28
68137;BME280;54939;50.826;9.030;2024-01-30T01:58:59;100005.72;;;4.90;69.46
68137;BME280;54939;50.826;9.030;2024-01-30T01:59:30;100004.75;;;4.91;69.59
68137;BME280;54939;50.826;9.030;2024-01-30T02:00:01;100000.41;;;4.90;69.71
68137;BME280;54939;50.826;9.030;2024-01-30T02:00:31;99996.91;;;4.90;69.36
68137;BME280;54939;50.826;9.030;2024-01-30T02:01:02;99995.13;;;4.90;69.30
68137;BME280;54939;50.826;9.030;2024-01-30T02:01:34;99995.13;;;4.90;69.18
68137;BME280;54939;50.826;9.030;2024-01-30T02:02:04;99995.97;;;4.91;69.72
68137;BME280;54939;50.826;9.030;2024-01-30T02:02:35;99992.47;;;4.90;69.81
68137;BME280;54939;50.826;9.030;2024-01-30T02:03:05;100005.72;;;4.90;69.55
68137;BME280;54939;50.826;9.030;2024-01-30T02:03:36;100001.34;;;4.89;69.65
68137;BME280;54939;50.826;9.030;2024-01-30T02:04:07;99998.78;;;4.88;69.90
68137;BME280;54939;50.826;9.030;2024-01-30T02:04:37;99998.69;;;4.89;69.22
68137;BME280;54939;50.826;9.030;2024-01-30T02:05:08;100002.19;;;4.90;69.59
68137;BME280;54939;50.826;9.030;2024-01-30T02:05:38;99993.41;;;4.89;69.50
68137;BME280;54939;50.826;9.030;2024-01-30T02:06:09;99996.91;;;4.90;69.68
68137;BME280;54939;50.826;9.030;2024-01-30T02:06:39;99994.34;;;4.88;69.17
68137;BME280;54939;50.826;9.030;2024-01-30T02:07:09;99993.41;;;4.89;69.19
68137;BME280;54939;50.826;9.030;2024-01-30T02:07:40;99996.91;;;4.90;69.63
68137;BME280;54939;50.826;9.030;2024-01-30T02:08:10;99987.25;;;4.89;69.62
68137;BME280;54939;50.826;9.030;2024-01-30T02:08:41;99990.75;;;4.89;69.54
68137;BME280;54939;50.826;9.030;2024-01-30T02:09:11;99992.56;;;4.89;69.78
68137;BME280;54939;50.826;9.030;2024-01-30T02:09:42;99991.63;;;4.90;69.60
68137;BME280;54939;50.826;9.030;2024-01-30T02:10:13;99993.41;;;4.89;69.48
68137;BME280;54939;50.826;9.030;2024-01-30T02:10:46;99994.25;;;4.90;69.16
68137;BME280;54939;50.826;9.030;2024-01-30T02:11:16;99992.47;;;4.90;69.37
68137;BME280;54939;50.826;9.030;2024-01-30T02:11:46;99990.69;;;4.91;69.05
68137;BME280;54939;50.826;9.030;2024-01-30T02:12:17;99991.50;;;4.91;69.58
68137;BME280;54939;50.826;9.030;2024-01-30T02:12:48;99990.56;;;4.92;69.16
68137;BME280;54939;50.826;9.030;2024-01-30T02:13:18;99991.50;;;4.91;69.49
68137;BME280;54939;50.826;9.030;2024-01-30T02:13:48;99994.16;;;4.91;69.06
68137;BME280;54939;50.826;9.030;2024-01-30T02:14:19;99986.22;;;4.91;69.58
68137;BME280;54939;50.826;9.030;2024-01-30T02:14:49;99990.69;;;4.91;69.53
68137;BME280;54939;50.826;9.030;2024-01-30T02:15:20;99974.69;;;4.92;68.90
68137;BME280;54939;50.826;9.030;2024-01-30T02:15:50;99988.88;;;4.91;69.47
68137;BME280;54939;50.826;9.030;2024-01-30T02:16:21;99987.19;;;4.90;69.58
68137;BME280;54939;50.826;9.030;2024-01-30T02:16:51;99986.22;;;4.91;69.48
68137;BME280;54939;50.826;9.030;2024-01-30T02:17:21;99985.38;;;4.91;69.74
68137;BME280;54939;50.826;9.030;2024-01-30T02:17:53;99978.38;;;4.90;68.99
68137;BME280;54939;50.826;9.030;2024-01-30T02:18:23;99983.69;;;4.90;69.67
68137;BME280;54939;50.826;9.030;2024-01-30T02:18:53;99983.75;;;4.88;69.66
68137;BME280;54939;50.826;9.030;2024-01-30T02:19:23;99991.63;;;4.90;69.67
68137;BME280;54939;50.826;9.030;2024-01-30T02:19:54;99986.31;;;4.90;69.42
68137;BME280;54939;50.826;9.030;2024-01-30T02:20:24;99988.97;;;4.90;69.68
68137;BME280;54939;50.826;9.030;2024-01-30T02:20:56;99985.38;;;4.91;69.09
68137;BME280;54939;50.826;9.030;2024-01-30T02:21:28;99985.38;;;4.91;69.30
68137;BME280;54939;50.826;9.030;2024-01-30T02:21:58;99979.25;;;4.90;69.50
68137;BME280;54939;50.826;9.030;2024-01-30T02:22:28;99981.88;;;4.90;69.51
68137;BME280;54939;50.826;9.030;2024-01-30T02:22:59;99985.28;;;4.92;69.58
68137;BME280;54939;50.826;9.030;2024-01-30T02:23:33;99981.03;;;4.90;69.54
68137;BME280;54939;50.826;9.030;2024-01-30T02:24:04;99972.16;;;4.91;69.07
68137;BME280;54939;50.826;9.030;2024-01-30T02:24:35;99978.28;;;4.91;69.35
68137;BME280;54939;50.826;9.030;2024-01-30T02:25:05;99980.09;;;4.91;69.18
68137;BME280;54939;50.826;9.030;2024-01-30T02:25:38;99978.38;;;4.90;69.49
68137;BME280;54939;50.826;9.030;2024-01-30T02:26:08;99987.25;;;4.89;69.17
68137;BME280;54939;50.826;9.030;2024-01-30T02:26:39;99978.47;;;4.88;69.61
68137;BME280;54939;50.826;9.030;2024-01-30T02:27:09;99983.69;;;4.90;69.71
68137;BME280;54939;50.826;9.030;2024-01-30T02:27:39;99985.38;;;4.91;69.33
68137;BME280;54939;50.826;9.030;2024-01-30T02:28:10;99986.31;;;4.90;69.65
68137;BME280;54939;50.826;9.030;2024-01-30T02:28:41;99984.63;;;4.89;69.54
68137;BME280;54939;50.826;9.030;2024-01-30T02:29:11;99981.13;;;4.88;69.21
68137;BME280;54939;50.826;9.030;2024-01-30T02:29:41;99981.97;;;4.89;69.63
68137;BME280;54939;50.826;9.030;2024-01-30T02:30:11;99987.25;;;4.89;69.45
68137;BME280;54939;50.826;9.030;2024-01-30T02:30:45;99974.88;;;4.89;69.48
68137;BME280;54939;50.826;9.030;2024-01-30T02:31:15;99965.31;;;4.87;69.30
68137;BME280;54939;50.826;9.030;2024-01-30T02:31:51;99979.31;;;4.89;69.74
68137;BME280;54939;50.826;9.030;2024-01-30T02:32:22;99982.81;;;4.89;69.35
68137;BME280;54939;50.826;9.030;2024-01-30T02:33:01;99979.25;;;4.90;69.55
68137;BME280;54939;50.826;9.030;2024-01-30T02:33:32;99979.25;;;4.90;69.29
68137;BME280;54939;50.826;9.030;2024-01-30T02:34:02;99977.53;;;4.89;69.70
68137;BME280;54939;50.826;9.030;2024-01-30T02:34:32;99975.75;;;4.90;69.57
68137;BME280;54939;50.826;9.030;2024-01-30T02:35:02;99972.16;;;4.91;69.67
68137;BME280;54939;50.826;9.030;2024-01-30T02:35:33;99980.09;;;4.91;69.05
68137;BME280;54939;50.826;9.030;2024-01-30T02:36:04;99981.88;;;4.90;69.35
68137;BME280;54939;50.826;9.030;2024-01-30T02:36:34;99969.59;;;4.89;69.37
68137;BME280;54939;50.826;9.030;2024-01-30T02:37:04;99981.03;;;4.90;69.21
68137;BME280;54939;50.826;9.030;2024-01-30T02:37:34;99975.75;;;4.90;69.51
68137;BME280;54939;50.826;9.030;2024-01-30T02:38:04;99978.38;;;4.90;69.14
68137;BME280;54939;50.826;9.030;2024-01-30T02:38:35;99975.81;;;4.88;69.69
68137;BME280;54939;50.826;9.030;2024-01-30T02:39:05;99979.31;;;4.89;69.73
68137;BME280;54939;50.826;9.030;2024-01-30T02:39:36;99981.97;;;4.89;69.32
68137;BME280;54939;50.826;9.030;2024-01-30T02:40:06;99983.69;;;4.90;69.05
68137;BME280;54939;50.826;9.030;2024-01-30T02:40:37;99981.03;;;4.90;69.33
68137;BME280;54939;50.826;9.030;2024-01-30T02:41:07;99976.69;;;4.89;69.60
68137;BME280;54939;50.826;9.030;2024-01-30T02:41:37;99981.13;;;4.88;69.61
68137;BME280;54939;50.826;9.030;2024-01-30T02:42:07;99976.69;;;4.89;69.24
68137;BME280;54939;50.826;9.030;2024-01-30T02:42:37;99977.53;;;4.89;69.46
68137;BME280;54939;50.826;9.030;2024-01-30T02:43:07;99983.69;;;4.90;69.54